createdAt,value
2019-04-28T00:08:52.668Z,93208.55
2019-04-28T00:19:00.926Z,93199.25
2019-04-28T00:29:04.870Z,93208.22
2019-04-28T00:39:08.494Z,93205.11
2019-04-28T00:49:11.881Z,93214.64
2019-04-28T00:59:18.918Z,93202.05
2019-04-28T01:09:26.206Z,93216.59
2019-04-28T01:19:31.380Z,93216.67
2019-04-28T01:29:34.598Z,93218.98
2019-04-28T01:39:37.170Z,93212.59
2019-04-28T01:49:40.576Z,93208.08
2019-04-28T01:59:44.173Z,93208.09
2019-04-28T02:09:49.096Z,93198.95
2019-04-28T02:19:53.449Z,93186.05
2019-04-28T02:29:56.329Z,93184.66
2019-04-28T02:40:02.848Z,93198.19
2019-04-28T02:50:11.406Z,93196.57
2019-04-28T03:00:21.340Z,93220.58
2019-04-28T03:10:24.312Z,93224.73
2019-04-28T03:20:26.991Z,93238.45
2019-04-28T03:30:54.105Z,93236.70
2019-04-28T03:41:01.068Z,93251.65
2019-04-28T03:51:05.724Z,93270.58
2019-04-28T04:01:10.855Z,93284.34
2019-04-28T04:11:16.358Z,93284.46
2019-04-28T04:21:23.619Z,93305.26
2019-04-28T04:31:31.800Z,93315.19
2019-04-28T04:41:36.551Z,93321.81
2019-04-28T04:51:43.320Z,93329.32
2019-04-28T05:01:49.609Z,93340.86
2019-04-28T05:11:52.432Z,93336.55
2019-04-28T05:21:55.053Z,93328.29
2019-04-28T05:31:59.768Z,93342.33
2019-04-28T05:42:03.636Z,93337.55
2019-04-28T05:52:11.940Z,93337.80
2019-04-28T06:02:24.546Z,93336.64
2019-04-28T06:12:27.103Z,93336.33
2019-04-28T06:22:30.959Z,93326.59
2019-04-28T06:32:34.658Z,93329.20
2019-04-28T06:42:38.774Z,93329.84
2019-04-28T06:52:42.857Z,93333.09
2019-04-28T07:02:46.752Z,93329.42
2019-04-28T07:12:49.317Z,93342.66
2019-04-28T07:22:51.874Z,93347.85
2019-04-28T07:32:55.433Z,93337.84
2019-04-28T07:42:59.598Z,93346.53
2019-04-28T07:53:09.307Z,93347.91
2019-04-28T08:03:12.595Z,93352.72
2019-04-28T08:13:17.082Z,93363.72
2019-04-28T08:23:22.105Z,93360.52
2019-04-28T08:33:40.694Z,93347.37
2019-04-28T08:43:43.259Z,93351.73
2019-04-28T08:53:48.125Z,93351.22
2019-04-28T09:03:50.869Z,93344.50
2019-04-28T09:13:55.306Z,93342.66
2019-04-28T09:23:58.534Z,93344.52
2019-04-28T09:34:01.759Z,93344.73
2019-04-28T09:44:09.551Z,93344.48
2019-04-28T09:54:13.435Z,93332.17
2019-04-28T10:04:15.998Z,93324.37
2019-04-28T10:14:19.014Z,93321.52
2019-04-28T10:24:21.572Z,93309.02
2019-04-28T10:34:24.522Z,93308.62
2019-04-28T10:44:30.127Z,93295.06
2019-04-28T10:54:34.288Z,93284.81
2019-04-28T11:04:43.239Z,93282.42
2019-04-28T11:14:46.654Z,93267.73
2019-04-28T11:24:52.262Z,93270.11
2019-04-28T11:35:01.445Z,93253.01
2019-04-28T11:45:06.126Z,93241.97
2019-04-28T11:55:10.070Z,93237.13
2019-04-28T12:05:14.507Z,93230.86
2019-04-28T12:15:32.858Z,93223.11
2019-04-28T12:25:36.073Z,93217.21
2019-04-28T12:35:47.616Z,93203.08
2019-04-28T12:45:46.682Z,93197.64
2019-04-28T12:55:52.390Z,93185.15
2019-04-28T13:06:03.712Z,93185.91
2019-04-28T13:16:04.196Z,93168.98
2019-04-28T13:26:10.030Z,93158.66
2019-04-28T13:36:14.994Z,93151.69
2019-04-28T13:46:18.643Z,93155.02
2019-04-28T13:56:23.955Z,93147.83
2019-04-28T14:06:29.667Z,93138.95
2019-04-28T14:16:32.273Z,93133.17
2019-04-28T14:26:36.417Z,93134.60
2019-04-28T14:36:42.133Z,93119.23
2019-04-28T14:46:46.676Z,93110.19
2019-04-28T14:56:50.975Z,93117.69
2019-04-28T15:06:59.641Z,93119.45
2019-04-28T15:17:03.033Z,93122.08
2019-04-28T15:27:06.909Z,93120.32
2019-04-28T15:37:10.329Z,93110.45
2019-04-28T15:47:13.160Z,93112.47
2019-04-28T15:57:16.558Z,93108.20
2019-04-28T16:07:25.172Z,93102.20
2019-04-28T16:17:24.123Z,93099.25
2019-04-28T16:27:28.368Z,93083.25
2019-04-28T16:37:39.102Z,93087.25
2019-04-28T16:47:38.018Z,93102.07
2019-04-28T16:57:54.821Z,93109.92
2019-04-28T17:07:59.583Z,93119.34
2019-04-28T17:18:02.171Z,93129.00
2019-04-28T17:28:05.256Z,93127.40
2019-04-28T17:38:08.357Z,93134.55
2019-04-28T17:48:15.728Z,93138.38
2019-04-28T17:58:18.872Z,93151.65
2019-04-28T18:08:22.656Z,93156.63
2019-04-28T18:18:33.221Z,93159.68
2019-04-28T18:28:37.761Z,93163.19
2019-04-28T18:38:44.604Z,93167.16
2019-04-28T18:48:48.931Z,93167.70
2019-04-28T18:58:52.173Z,93173.91
2019-04-28T19:09:13.161Z,93181.95
2019-04-28T19:19:20.392Z,93190.06
2019-04-28T19:29:23.018Z,93188.14
2019-04-28T19:39:27.152Z,93191.31
2019-04-28T19:49:31.510Z,93194.92
2019-04-28T20:10:08.302Z,93194.20
2019-04-28T20:20:11.158Z,93190.19
2019-04-28T20:30:17.022Z,93185.73
2019-04-28T20:40:22.885Z,93182.58
2019-04-28T20:50:26.102Z,93182.26
2019-04-28T21:00:29.588Z,93174.46
2019-04-28T21:10:38.280Z,93162.92
2019-04-28T21:20:37.723Z,93175.92
2019-04-28T21:30:41.167Z,93172.69
2019-04-28T21:40:44.706Z,93171.77
2019-04-28T21:50:48.601Z,93173.58
2019-04-28T22:00:54.238Z,93172.35
2019-04-28T22:10:57.110Z,93177.45
2019-04-28T22:20:59.695Z,93173.20
2019-04-28T22:31:02.256Z,93151.32
2019-04-28T22:41:05.747Z,93155.59
2019-04-28T22:51:08.328Z,93164.95
2019-04-28T23:01:21.196Z,93159.88
2019-04-28T23:11:25.514Z,93147.06
2019-04-28T23:21:30.078Z,93147.25
2019-04-28T23:31:32.629Z,93129.78
2019-04-28T23:41:53.118Z,93134.25
2019-04-28T23:52:16.601Z,93129.15
